createdAt,value
2023-03-30T00:00:35.012Z,71.09
2023-03-30T00:05:38.143Z,71.08
2023-03-30T00:10:40.963Z,71.04
2023-03-30T00:15:42.597Z,71.10
2023-03-30T00:20:45.219Z,71.44
2023-03-30T00:25:47.189Z,72.36
2023-03-30T00:30:49.475Z,72.86
2023-03-30T00:35:58.412Z,73.23
2023-03-30T00:41:02.229Z,72.99
2023-03-30T00:46:04.603Z,72.97
2023-03-30T00:51:10.367Z,72.55
2023-03-30T00:56:16.553Z,72.83
2023-03-30T01:01:25.908Z,72.54
2023-03-30T01:06:30.291Z,72.23
2023-03-30T01:11:31.953Z,72.58
2023-03-30T01:16:45.765Z,72.86
2023-03-30T01:22:06.803Z,73.05
2023-03-30T01:27:33.390Z,73.93
2023-03-30T01:32:55.462Z,73.50
2023-03-30T01:38:27.441Z,73.35
2023-03-30T01:43:45.827Z,73.24
2023-03-30T01:48:56.660Z,72.93
2023-03-30T01:54:12.944Z,73.50
2023-03-30T01:59:39.760Z,73.55
2023-03-30T02:04:45.601Z,73.80
2023-03-30T02:09:50.975Z,75.92
2023-03-30T02:14:56.344Z,75.28
2023-03-30T02:19:59.364Z,76.74
2023-03-30T02:25:01.441Z,76.27
2023-03-30T02:30:04.009Z,77.65
2023-03-30T02:35:26.607Z,76.87
2023-03-30T02:41:02.781Z,77.39
2023-03-30T02:46:46.954Z,77.56
2023-03-30T02:51:54.319Z,77.02
2023-03-30T02:57:23.774Z,77.33
2023-03-30T03:02:34.397Z,78.01
2023-03-30T03:07:49.787Z,77.98
2023-03-30T03:12:52.352Z,77.79
2023-03-30T03:17:55.827Z,78.55
2023-03-30T03:22:57.940Z,79.08
2023-03-30T03:27:59.775Z,78.94
2023-03-30T03:33:08.200Z,80.67
2023-03-30T03:38:10.789Z,80.67
2023-03-30T03:43:12.663Z,81.57
2023-03-30T03:48:15.959Z,83.57
2023-03-30T03:53:24.738Z,84.93
2023-03-30T03:58:29.987Z,86.08
2023-03-30T04:03:32.115Z,86.85
2023-03-30T04:08:55.002Z,87.01
2023-03-30T04:14:16.796Z,87.05
2023-03-30T04:19:44.045Z,88.19
2023-03-30T04:25:15.193Z,87.64
2023-03-30T04:30:48.999Z,88.72
2023-03-30T04:36:17.889Z,89.34
2023-03-30T04:41:46.004Z,87.61
2023-03-30T04:47:04.197Z,86.60
2023-03-30T04:52:25.269Z,85.91
2023-03-30T04:57:47.163Z,85.07
2023-03-30T05:03:09.278Z,84.83
2023-03-30T05:08:41.784Z,85.17
2023-03-30T05:14:03.014Z,84.86
2023-03-30T05:19:27.959Z,84.79
2023-03-30T05:24:58.840Z,84.44
2023-03-30T05:30:20.740Z,84.13
2023-03-30T05:35:41.003Z,84.18
2023-03-30T05:41:05.184Z,84.49
2023-03-30T05:46:39.975Z,85.37
2023-03-30T05:52:04.340Z,86.13
2023-03-30T05:57:36.748Z,85.28
2023-03-30T06:02:52.589Z,86.30
2023-03-30T06:07:57.924Z,84.03
2023-03-30T06:12:59.675Z,84.52
2023-03-30T06:18:19.409Z,84.50
2023-03-30T06:23:30.455Z,83.25
2023-03-30T06:28:45.608Z,81.83
2023-03-30T06:33:47.724Z,81.88
2023-03-30T06:38:49.760Z,82.46
2023-03-30T06:43:52.666Z,82.55
2023-03-30T06:48:55.477Z,81.92
2023-03-30T06:54:41.428Z,81.54
2023-03-30T06:59:44.081Z,80.60
2023-03-30T07:04:54.813Z,80.72
2023-03-30T07:10:10.846Z,80.42
2023-03-30T07:15:16.722Z,78.85
2023-03-30T07:20:28.070Z,78.19
2023-03-30T07:25:49.031Z,78.68
2023-03-30T07:31:09.177Z,77.67
2023-03-30T07:36:14.186Z,77.60
2023-03-30T07:41:16.458Z,77.46
2023-03-30T07:46:28.910Z,76.18
2023-03-30T07:51:31.045Z,75.20
2023-03-30T07:56:39.768Z,74.70
2023-03-30T08:01:42.103Z,74.26
2023-03-30T08:07:01.423Z,72.85
2023-03-30T08:12:03.618Z,73.55
2023-03-30T08:17:05.258Z,72.66
2023-03-30T08:22:07.082Z,72.67
2023-03-30T08:27:09.115Z,73.10
2023-03-30T08:32:10.846Z,72.68
2023-03-30T08:37:12.529Z,71.51
2023-03-30T08:42:58.946Z,70.64
2023-03-30T08:48:01.251Z,70.31
2023-03-30T08:53:07.879Z,69.11
2023-03-30T08:58:21.926Z,67.62
2023-03-30T09:03:42.925Z,67.89
2023-03-30T09:08:45.012Z,66.51
2023-03-30T09:13:49.207Z,67.11
2023-03-30T09:18:56.410Z,67.20
2023-03-30T09:24:00.807Z,66.29
2023-03-30T09:29:30.683Z,64.93
2023-03-30T09:34:49.366Z,65.47
2023-03-30T09:39:51.071Z,65.32
2023-03-30T09:44:52.784Z,65.02
2023-03-30T09:50:02.685Z,63.98
2023-03-30T09:55:22.466Z,63.45
2023-03-30T10:00:34.327Z,63.66
2023-03-30T10:05:37.836Z,64.00
2023-03-30T10:10:41.043Z,64.53
2023-03-30T10:15:46.144Z,64.53
2023-03-30T10:20:54.571Z,64.62
2023-03-30T10:26:02.449Z,63.51
2023-03-30T10:31:14.262Z,64.24
2023-03-30T10:36:19.127Z,64.44
2023-03-30T10:41:23.744Z,64.72
2023-03-30T10:46:26.700Z,64.44
2023-03-30T10:51:37.522Z,64.68
2023-03-30T10:56:51.436Z,65.53
2023-03-30T11:02:17.964Z,64.94
2023-03-30T11:07:41.909Z,65.85
2023-03-30T11:12:53.819Z,66.28
2023-03-30T11:18:18.653Z,66.14
2023-03-30T11:23:28.178Z,66.15
2023-03-30T11:28:32.827Z,66.02
2023-03-30T11:34:00.693Z,65.81
2023-03-30T11:39:04.764Z,66.51
2023-03-30T11:44:10.712Z,66.14
2023-03-30T11:49:29.244Z,66.17
2023-03-30T11:55:07.109Z,66.69
2023-03-30T12:00:41.704Z,66.48
2023-03-30T12:05:52.844Z,67.51
2023-03-30T12:11:20.576Z,68.78
2023-03-30T12:16:41.214Z,70.08
2023-03-30T12:21:52.317Z,69.52
2023-03-30T12:27:05.432Z,68.71
2023-03-30T12:32:28.435Z,66.70
2023-03-30T12:37:38.106Z,66.13
2023-03-30T12:42:54.346Z,65.73
2023-03-30T12:48:20.737Z,64.84
2023-03-30T12:53:38.259Z,64.26
2023-03-30T12:59:25.519Z,64.67
2023-03-30T13:04:33.151Z,64.61
2023-03-30T13:09:59.910Z,64.74
2023-03-30T13:15:26.683Z,65.52
2023-03-30T13:20:35.095Z,68.57
2023-03-30T13:25:37.430Z,70.82
2023-03-30T13:30:39.983Z,71.64
2023-03-30T13:36:00.659Z,70.15
2023-03-30T13:41:11.208Z,69.78
2023-03-30T13:46:51.801Z,70.84
2023-03-30T13:52:01.419Z,70.43
2023-03-30T13:57:20.705Z,70.35
2023-03-30T14:02:23.782Z,70.44
2023-03-30T14:07:25.628Z,71.90
2023-03-30T14:12:27.357Z,73.88
2023-03-30T14:17:29.151Z,74.40
2023-03-30T14:22:32.538Z,76.99
2023-03-30T14:27:40.041Z,77.59
2023-03-30T14:32:41.910Z,79.56
2023-03-30T14:37:51.659Z,79.47
2023-03-30T14:42:53.994Z,77.64
2023-03-30T14:47:56.463Z,77.89
2023-03-30T14:52:58.695Z,76.93
2023-03-30T14:58:01.588Z,77.66
2023-03-30T15:03:05.082Z,78.69
2023-03-30T15:08:13.135Z,78.73
2023-03-30T15:13:23.257Z,78.60
2023-03-30T15:18:29.898Z,80.09
2023-03-30T15:23:36.616Z,80.65
2023-03-30T15:28:51.485Z,80.67
2023-03-30T15:33:58.067Z,79.43
2023-03-30T15:39:20.224Z,78.45
2023-03-30T15:44:22.678Z,78.03
2023-03-30T15:49:43.731Z,78.26
2023-03-30T15:54:52.876Z,79.63
2023-03-30T16:00:02.383Z,80.72
2023-03-30T16:05:16.726Z,79.92
2023-03-30T16:10:21.734Z,79.90
2023-03-30T16:15:31.189Z,79.93
2023-03-30T16:20:36.583Z,80.10
2023-03-30T16:30:48.227Z,81.07
2023-03-30T16:35:50.054Z,80.87
2023-03-30T16:40:55.964Z,82.26
2023-03-30T16:45:57.937Z,81.83
2023-03-30T16:50:59.949Z,81.75
2023-03-30T16:56:01.873Z,82.49
2023-03-30T17:01:13.675Z,82.27
2023-03-30T17:06:17.220Z,82.50
2023-03-30T17:11:18.899Z,82.46
2023-03-30T17:16:22.177Z,83.56
2023-03-30T17:21:24.115Z,83.47
2023-03-30T17:26:26.511Z,83.94
2023-03-30T17:31:28.261Z,83.96
2023-03-30T17:36:30.212Z,84.83
2023-03-30T17:41:33.735Z,85.67
2023-03-30T17:46:35.682Z,85.72
2023-03-30T17:51:37.689Z,87.58
2023-03-30T17:56:39.339Z,88.27
2023-03-30T18:01:41.093Z,86.82
2023-03-30T18:06:52.564Z,86.41
2023-03-30T18:12:10.324Z,85.75
2023-03-30T18:17:15.039Z,85.78
2023-03-30T18:22:16.655Z,85.40
2023-03-30T18:27:18.606Z,85.12
2023-03-30T18:32:20.665Z,84.53
2023-03-30T18:37:22.316Z,83.99
2023-03-30T18:42:27.284Z,84.07
2023-03-30T18:47:29.306Z,83.39
2023-03-30T18:52:31.628Z,81.98
2023-03-30T18:57:33.305Z,81.06
2023-03-30T19:02:34.918Z,81.27
2023-03-30T19:07:36.583Z,81.31
2023-03-30T19:12:38.588Z,80.52
2023-03-30T19:17:40.567Z,80.29
2023-03-30T19:22:42.238Z,79.20
2023-03-30T19:27:59.191Z,78.99
2023-03-30T19:33:06.799Z,79.62
2023-03-30T19:38:09.258Z,79.93
2023-03-30T19:43:11.380Z,79.85
2023-03-30T19:48:13.095Z,80.54
2023-03-30T19:53:14.992Z,80.75
2023-03-30T19:58:16.703Z,80.57
2023-03-30T20:03:18.342Z,81.21
2023-03-30T20:08:24.397Z,80.80
2023-03-30T20:13:27.375Z,81.17
2023-03-30T20:19:02.657Z,80.73
2023-03-30T20:24:04.801Z,80.49
2023-03-30T20:29:06.552Z,80.40
2023-03-30T20:34:33.803Z,80.67
2023-03-30T20:39:37.870Z,80.53
2023-03-30T20:44:41.850Z,80.72
2023-03-30T20:49:44.732Z,80.40
2023-03-30T20:54:46.487Z,80.17
2023-03-30T20:59:49.245Z,79.99
2023-03-30T21:04:53.129Z,80.17
2023-03-30T21:09:55.083Z,79.79
2023-03-30T21:14:56.922Z,78.98
2023-03-30T21:19:58.713Z,78.66
2023-03-30T21:25:00.464Z,77.35
2023-03-30T21:30:02.132Z,77.70
2023-03-30T21:35:04.060Z,77.08
2023-03-30T21:40:08.673Z,76.98
2023-03-30T21:45:12.090Z,77.62
2023-03-30T21:50:13.716Z,77.48
2023-03-30T21:55:15.940Z,77.02
2023-03-30T22:00:17.859Z,77.66
2023-03-30T22:05:19.554Z,77.58
2023-03-30T22:10:21.457Z,78.37
2023-03-30T22:15:23.039Z,77.98
2023-03-30T22:20:24.657Z,78.03
2023-03-30T22:25:26.744Z,77.93
2023-03-30T22:30:29.089Z,78.24
2023-03-30T22:35:31.568Z,79.14
2023-03-30T22:40:35.712Z,79.77
2023-03-30T22:45:38.017Z,80.51
2023-03-30T22:50:39.620Z,80.50
2023-03-30T22:55:41.512Z,80.58
2023-03-30T23:00:43.147Z,80.38
2023-03-30T23:05:51.771Z,80.35
2023-03-30T23:10:53.961Z,80.61
2023-03-30T23:15:56.185Z,80.65
2023-03-30T23:20:57.997Z,80.28
2023-03-30T23:26:02.908Z,80.12
2023-03-30T23:31:13.067Z,80.14
2023-03-30T23:36:17.017Z,80.16
2023-03-30T23:41:20.356Z,80.13
2023-03-30T23:46:21.955Z,80.44
2023-03-30T23:51:23.631Z,80.18
2023-03-30T23:56:27.665Z,79.96
